Brush Creek, TN (38547)

12:49 PM CST on December 05, 2016 (GMT -0600)
Commerce | | Change Station

Elev 610 ft 36.13 °N, 86.12 °W | Updated 7 minutes ago

Overcast
Overcast
47.3 °F
Feels Like 47 °F
N
3.0
Wind Variable Wind from ENE
Gusts 8.0 mph

Today
High -- | Low -- °F
--% Chance of Precip.
Yesterday
High -- | Low -- °F
Precip. -- in
Pressure 30.07 in
Visibility 7.0 miles
Clouds Overcast 600 ft
Windchill 47 °F
Dew Point 45 °F
Humidity 92%
Rainfall 0.00 in
Snow Depth Not available.
6:40 AM 4:29 PM
Waxing Crescent, 34% visible
METAR KMQY 051756Z 02005KT 7SM OVC006 07/06 A3003 RMK AO2 SLP181 T00720061 10072 20061 58016
Pressure 30.07 in
Visibility 7.0 miles
Clouds Overcast 600 ft
Windchill 47 °F
Dew Point 45 °F
Humidity 92%
Rainfall 0.00 in
Snow Depth Not available.
6:40 AM 4:29 PM
Waxing Crescent, 34% visible
METAR KMQY 051756Z 02005KT 7SM OVC006 07/06 A3003 RMK AO2 SLP181 T00720061 10072 20061 58016

10-Day Weather Forecast

Almanac

Astronomy

Dec. 05, 2016 Rise Set
Actual Time
Civil Twilight
Nautical Twilight
Astronomical Twilight
Moon
Length of Visible Light
Length of Day
Tomorrow will be .
, % of the Moon is Illuminated

Today's Extremes

State Highs State Lows

Community

WunderPhotos

Upload Photos

1,955,851 photos uploaded!

WunderBlog® & News

Nearby

Air Quality

  Air Quality AQ Index Pollutant
Not available.

Snow Depth

Station Depth Elevation

Earthquake Activity

City Distance Mag. Time & Date
Minimum magnitude displayed is 2.5.

Coastal Water Temperatures

Place Temperature

Stations

Nearby Weather Stations

Station Location Temp. Windchill Dew Point Humidity Wind Precip. Elev Updated Type
                   

Watches & Warnings

There are currently no watches in effect.